sensor_id;sensor_type;location;lat;lon;timestamp;P1;durP1;ratioP1;P2;durP2;ratioP2
58338;SDS011;48278;52.704;6.536;2022-09-02T00:01:21;5.83;;;1.40;;
58338;SDS011;48278;52.704;6.536;2022-09-02T00:04:02;7.05;;;1.88;;
58338;SDS011;48278;52.704;6.536;2022-09-02T00:06:32;7.13;;;1.70;;
58338;SDS011;48278;52.704;6.536;2022-09-02T00:08:58;6.43;;;1.35;;
58338;SDS011;48278;52.704;6.536;2022-09-02T00:13:52;5.40;;;2.35;;
58338;SDS011;48278;52.704;6.536;2022-09-02T00:16:19;5.82;;;1.80;;
58338;SDS011;48278;52.704;6.536;2022-09-02T00:18:48;6.32;;;1.67;;
58338;SDS011;48278;52.704;6.536;2022-09-02T00:21:16;7.13;;;1.63;;
58338;SDS011;48278;52.704;6.536;2022-09-02T00:23:43;11.05;;;2.00;;
58338;SDS011;48278;52.704;6.536;2022-09-02T00:26:10;5.60;;;1.60;;
58338;SDS011;48278;52.704;6.536;2022-09-02T00:28:37;5.80;;;1.50;;
58338;SDS011;48278;52.704;6.536;2022-09-02T00:31:03;5.78;;;1.90;;
58338;SDS011;48278;52.704;6.536;2022-09-02T00:33:29;7.03;;;1.60;;
58338;SDS011;48278;52.704;6.536;2022-09-02T00:35:57;4.30;;;1.58;;
58338;SDS011;48278;52.704;6.536;2022-09-02T00:38:24;7.72;;;1.60;;
58338;SDS011;48278;52.704;6.536;2022-09-02T00:40:50;4.50;;;1.52;;
58338;SDS011;48278;52.704;6.536;2022-09-02T00:43:38;4.20;;;1.85;;
58338;SDS011;48278;52.704;6.536;2022-09-02T00:46:06;9.68;;;1.42;;
58338;SDS011;48278;52.704;6.536;2022-09-02T00:48:33;4.60;;;1.73;;
58338;SDS011;48278;52.704;6.536;2022-09-02T00:50:59;4.93;;;1.52;;
58338;SDS011;48278;52.704;6.536;2022-09-02T00:53:27;8.32;;;1.80;;
58338;SDS011;48278;52.704;6.536;2022-09-02T00:55:54;6.20;;;1.45;;
58338;SDS011;48278;52.704;6.536;2022-09-02T00:58:23;6.97;;;1.80;;
58338;SDS011;48278;52.704;6.536;2022-09-02T01:00:51;5.75;;;2.00;;
58338;SDS011;48278;52.704;6.536;2022-09-02T01:03:22;5.60;;;1.77;;
58338;SDS011;48278;52.704;6.536;2022-09-02T01:05:51;11.57;;;1.90;;
58338;SDS011;48278;52.704;6.536;2022-09-02T01:08:23;6.22;;;1.90;;
58338;SDS011;48278;52.704;6.536;2022-09-02T01:10:51;5.80;;;1.70;;
58338;SDS011;48278;52.704;6.536;2022-09-02T01:13:20;6.75;;;2.15;;
58338;SDS011;48278;52.704;6.536;2022-09-02T01:16:08;4.90;;;1.83;;
58338;SDS011;48278;52.704;6.536;2022-09-02T01:18:48;6.82;;;2.08;;
58338;SDS011;48278;52.704;6.536;2022-09-02T01:21:16;5.05;;;1.90;;
58338;SDS011;48278;52.704;6.536;2022-09-02T01:23:42;6.80;;;1.97;;
58338;SDS011;48278;52.704;6.536;2022-09-02T01:28:35;10.83;;;2.43;;
58338;SDS011;48278;52.704;6.536;2022-09-02T01:31:01;9.17;;;2.50;;
58338;SDS011;48278;52.704;6.536;2022-09-02T01:33:27;5.13;;;2.10;;
58338;SDS011;48278;52.704;6.536;2022-09-02T01:35:54;8.10;;;2.13;;
58338;SDS011;48278;52.704;6.536;2022-09-02T01:38:20;9.63;;;2.17;;
58338;SDS011;48278;52.704;6.536;2022-09-02T01:40:47;6.63;;;2.30;;
58338;SDS011;48278;52.704;6.536;2022-09-02T01:43:15;7.80;;;2.57;;
58338;SDS011;48278;52.704;6.536;2022-09-02T01:45:44;5.40;;;2.45;;
58338;SDS011;48278;52.704;6.536;2022-09-02T01:48:10;5.78;;;2.38;;
58338;SDS011;48278;52.704;6.536;2022-09-02T01:50:38;5.68;;;2.20;;
58338;SDS011;48278;52.704;6.536;2022-09-02T01:53:06;5.65;;;2.33;;
58338;SDS011;48278;52.704;6.536;2022-09-02T01:55:32;5.35;;;2.28;;
58338;SDS011;48278;52.704;6.536;2022-09-02T01:57:59;5.13;;;2.22;;
58338;SDS011;48278;52.704;6.536;2022-09-02T02:00:37;10.85;;;3.05;;
58338;SDS011;48278;52.704;6.536;2022-09-02T02:07:57;8.57;;;2.78;;
58338;SDS011;48278;52.704;6.536;2022-09-02T02:10:26;6.50;;;2.83;;
58338;SDS011;48278;52.704;6.536;2022-09-02T02:13:40;6.85;;;2.72;;
58338;SDS011;48278;52.704;6.536;2022-09-02T02:16:18;6.32;;;2.58;;
58338;SDS011;48278;52.704;6.536;2022-09-02T02:31:32;6.90;;;2.92;;
58338;SDS011;48278;52.704;6.536;2022-09-02T02:33:58;10.07;;;2.95;;
58338;SDS011;48278;52.704;6.536;2022-09-02T02:36:24;10.40;;;2.80;;
58338;SDS011;48278;52.704;6.536;2022-09-02T02:38:50;7.72;;;2.88;;
58338;SDS011;48278;52.704;6.536;2022-09-02T02:41:16;10.90;;;2.95;;
58338;SDS011;48278;52.704;6.536;2022-09-02T02:43:42;7.93;;;3.05;;
58338;SDS011;48278;52.704;6.536;2022-09-02T02:46:08;9.32;;;3.20;;
58338;SDS011;48278;52.704;6.536;2022-09-02T02:48:34;7.57;;;2.88;;
58338;SDS011;48278;52.704;6.536;2022-09-02T02:51:01;4.88;;;2.95;;
58338;SDS011;48278;52.704;6.536;2022-09-02T02:53:27;7.45;;;2.90;;
58338;SDS011;48278;52.704;6.536;2022-09-02T02:55:55;6.93;;;3.20;;
58338;SDS011;48278;52.704;6.536;2022-09-02T02:58:24;7.53;;;3.25;;
58338;SDS011;48278;52.704;6.536;2022-09-02T03:00:50;9.43;;;3.67;;
58338;SDS011;48278;52.704;6.536;2022-09-02T03:03:15;10.40;;;3.78;;
58338;SDS011;48278;52.704;6.536;2022-09-02T03:05:46;7.47;;;3.15;;
58338;SDS011;48278;52.704;6.536;2022-09-02T03:10:40;6.68;;;3.42;;
58338;SDS011;48278;52.704;6.536;2022-09-02T03:13:06;8.13;;;3.30;;
58338;SDS011;48278;52.704;6.536;2022-09-02T03:15:34;9.15;;;3.60;;
58338;SDS011;48278;52.704;6.536;2022-09-02T03:18:00;8.70;;;3.50;;
58338;SDS011;48278;52.704;6.536;2022-09-02T03:20:26;8.88;;;3.60;;
58338;SDS011;48278;52.704;6.536;2022-09-02T03:22:53;7.25;;;3.60;;
58338;SDS011;48278;52.704;6.536;2022-09-02T03:25:21;9.43;;;3.72;;
58338;SDS011;48278;52.704;6.536;2022-09-02T03:27:47;6.95;;;3.30;;
58338;SDS011;48278;52.704;6.536;2022-09-02T03:30:18;8.10;;;3.30;;
58338;SDS011;48278;52.704;6.536;2022-09-02T03:32:48;8.70;;;3.78;;
58338;SDS011;48278;52.704;6.536;2022-09-02T03:35:15;8.15;;;3.20;;
58338;SDS011;48278;52.704;6.536;2022-09-02T03:37:44;6.57;;;3.28;;
58338;SDS011;48278;52.704;6.536;2022-09-02T03:40:12;6.85;;;3.55;;
58338;SDS011;48278;52.704;6.536;2022-09-02T03:42:40;8.07;;;3.50;;
58338;SDS011;48278;52.704;6.536;2022-09-02T03:45:06;9.77;;;3.53;;
58338;SDS011;48278;52.704;6.536;2022-09-02T03:47:33;9.40;;;4.10;;
58338;SDS011;48278;52.704;6.536;2022-09-02T03:49:59;11.23;;;4.18;;
58338;SDS011;48278;52.704;6.536;2022-09-02T03:52:25;8.15;;;3.90;;
58338;SDS011;48278;52.704;6.536;2022-09-02T03:54:51;8.82;;;3.95;;
58338;SDS011;48278;52.704;6.536;2022-09-02T03:57:17;13.85;;;4.03;;
58338;SDS011;48278;52.704;6.536;2022-09-02T03:59:44;10.50;;;4.22;;
58338;SDS011;48278;52.704;6.536;2022-09-02T04:02:11;8.35;;;3.83;;
58338;SDS011;48278;52.704;6.536;2022-09-02T04:04:36;8.65;;;4.05;;
58338;SDS011;48278;52.704;6.536;2022-09-02T04:07:02;7.80;;;3.97;;
58338;SDS011;48278;52.704;6.536;2022-09-02T04:09:28;8.20;;;3.92;;
58338;SDS011;48278;52.704;6.536;2022-09-02T04:11:54;13.45;;;4.53;;
58338;SDS011;48278;52.704;6.536;2022-09-02T04:14:20;8.70;;;4.30;;
58338;SDS011;48278;52.704;6.536;2022-09-02T04:16:45;7.85;;;4.38;;
58338;SDS011;48278;52.704;6.536;2022-09-02T04:19:11;11.73;;;4.70;;
58338;SDS011;48278;52.704;6.536;2022-09-02T04:21:38;12.40;;;5.03;;
58338;SDS011;48278;52.704;6.536;2022-09-02T04:24:05;12.98;;;4.75;;
58338;SDS011;48278;52.704;6.536;2022-09-02T04:26:33;10.80;;;5.05;;
58338;SDS011;48278;52.704;6.536;2022-09-02T04:28:59;14.43;;;4.83;;
58338;SDS011;48278;52.704;6.536;2022-09-02T04:31:25;10.93;;;5.10;;
58338;SDS011;48278;52.704;6.536;2022-09-02T04:33:55;9.55;;;5.00;;
58338;SDS011;48278;52.704;6.536;2022-09-02T04:36:21;12.93;;;5.50;;
58338;SDS011;48278;52.704;6.536;2022-09-02T04:38:47;11.93;;;5.07;;
58338;SDS011;48278;52.704;6.536;2022-09-02T04:41:15;9.45;;;4.35;;
58338;SDS011;48278;52.704;6.536;2022-09-02T04:43:42;10.98;;;4.30;;
58338;SDS011;48278;52.704;6.536;2022-09-02T04:46:09;10.50;;;4.53;;
58338;SDS011;48278;52.704;6.536;2022-09-02T04:48:37;10.90;;;4.80;;
58338;SDS011;48278;52.704;6.536;2022-09-02T04:51:08;9.70;;;4.45;;
58338;SDS011;48278;52.704;6.536;2022-09-02T04:53:36;9.40;;;4.38;;
58338;SDS011;48278;52.704;6.536;2022-09-02T04:56:04;9.55;;;4.80;;
58338;SDS011;48278;52.704;6.536;2022-09-02T04:58:31;9.88;;;4.43;;
58338;SDS011;48278;52.704;6.536;2022-09-02T05:00:57;8.20;;;4.30;;
58338;SDS011;48278;52.704;6.536;2022-09-02T05:03:23;12.80;;;5.00;;
58338;SDS011;48278;52.704;6.536;2022-09-02T05:06:04;9.82;;;4.80;;
58338;SDS011;48278;52.704;6.536;2022-09-02T05:08:31;12.63;;;4.70;;
58338;SDS011;48278;52.704;6.536;2022-09-02T05:10:57;9.10;;;4.53;;
58338;SDS011;48278;52.704;6.536;2022-09-02T05:13:26;9.57;;;5.47;;
58338;SDS011;48278;52.704;6.536;2022-09-02T05:15:52;11.25;;;4.82;;
58338;SDS011;48278;52.704;6.536;2022-09-02T05:18:18;11.35;;;4.88;;
58338;SDS011;48278;52.704;6.536;2022-09-02T05:20:44;11.25;;;4.85;;
58338;SDS011;48278;52.704;6.536;2022-09-02T05:23:10;9.35;;;4.80;;
58338;SDS011;48278;52.704;6.536;2022-09-02T05:25:37;11.30;;;4.82;;
58338;SDS011;48278;52.704;6.536;2022-09-02T05:28:04;8.35;;;4.40;;
58338;SDS011;48278;52.704;6.536;2022-09-02T05:30:33;12.18;;;5.57;;
58338;SDS011;48278;52.704;6.536;2022-09-02T05:33:00;13.50;;;5.28;;
58338;SDS011;48278;52.704;6.536;2022-09-02T05:35:25;7.85;;;4.40;;
58338;SDS011;48278;52.704;6.536;2022-09-02T05:37:53;18.05;;;4.60;;
58338;SDS011;48278;52.704;6.536;2022-09-02T05:40:19;7.50;;;3.97;;
58338;SDS011;48278;52.704;6.536;2022-09-02T05:42:45;9.93;;;5.03;;
58338;SDS011;48278;52.704;6.536;2022-09-02T05:45:11;12.63;;;4.85;;
58338;SDS011;48278;52.704;6.536;2022-09-02T05:47:38;9.63;;;5.00;;
58338;SDS011;48278;52.704;6.536;2022-09-02T05:50:04;16.30;;;5.13;;
58338;SDS011;48278;52.704;6.536;2022-09-02T05:52:30;11.10;;;5.05;;
58338;SDS011;48278;52.704;6.536;2022-09-02T05:54:59;9.40;;;4.70;;
58338;SDS011;48278;52.704;6.536;2022-09-02T05:57:25;14.73;;;4.77;;
58338;SDS011;48278;52.704;6.536;2022-09-02T05:59:54;9.00;;;4.68;;
58338;SDS011;48278;52.704;6.536;2022-09-02T06:02:21;13.27;;;5.10;;
58338;SDS011;48278;52.704;6.536;2022-09-02T06:04:49;12.02;;;4.55;;
58338;SDS011;48278;52.704;6.536;2022-09-02T06:07:18;13.32;;;4.78;;
58338;SDS011;48278;52.704;6.536;2022-09-02T06:09:45;8.50;;;4.63;;
58338;SDS011;48278;52.704;6.536;2022-09-02T06:12:12;11.88;;;4.75;;
58338;SDS011;48278;52.704;6.536;2022-09-02T06:14:39;9.73;;;4.60;;
58338;SDS011;48278;52.704;6.536;2022-09-02T06:17:06;13.88;;;5.30;;
58338;SDS011;48278;52.704;6.536;2022-09-02T06:19:32;13.73;;;4.73;;
58338;SDS011;48278;52.704;6.536;2022-09-02T06:21:58;12.50;;;4.95;;
58338;SDS011;48278;52.704;6.536;2022-09-02T06:24:25;11.77;;;5.25;;
58338;SDS011;48278;52.704;6.536;2022-09-02T06:26:53;11.02;;;5.32;;
58338;SDS011;48278;52.704;6.536;2022-09-02T06:29:19;17.13;;;5.45;;
58338;SDS011;48278;52.704;6.536;2022-09-02T06:31:47;13.30;;;5.68;;
58338;SDS011;48278;52.704;6.536;2022-09-02T06:34:15;13.50;;;5.13;;
58338;SDS011;48278;52.704;6.536;2022-09-02T06:36:42;11.45;;;5.53;;
58338;SDS011;48278;52.704;6.536;2022-09-02T06:39:11;12.43;;;5.20;;
58338;SDS011;48278;52.704;6.536;2022-09-02T06:41:38;12.18;;;5.07;;
58338;SDS011;48278;52.704;6.536;2022-09-02T06:44:07;9.05;;;4.93;;
58338;SDS011;48278;52.704;6.536;2022-09-02T06:46:35;13.90;;;5.32;;
58338;SDS011;48278;52.704;6.536;2022-09-02T06:49:04;8.18;;;4.75;;
58338;SDS011;48278;52.704;6.536;2022-09-02T06:51:34;11.02;;;4.82;;
58338;SDS011;48278;52.704;6.536;2022-09-02T06:54:05;10.77;;;4.68;;
58338;SDS011;48278;52.704;6.536;2022-09-02T06:56:32;11.88;;;5.05;;
58338;SDS011;48278;52.704;6.536;2022-09-02T06:58:58;10.43;;;5.28;;
58338;SDS011;48278;52.704;6.536;2022-09-02T07:01:25;10.60;;;4.43;;
58338;SDS011;48278;52.704;6.536;2022-09-02T07:03:52;11.57;;;4.65;;
58338;SDS011;48278;52.704;6.536;2022-09-02T07:06:39;14.18;;;4.57;;
58338;SDS011;48278;52.704;6.536;2022-09-02T07:09:07;10.35;;;4.75;;
58338;SDS011;48278;52.704;6.536;2022-09-02T07:11:35;9.15;;;4.63;;
58338;SDS011;48278;52.704;6.536;2022-09-02T07:14:01;15.20;;;5.05;;
58338;SDS011;48278;52.704;6.536;2022-09-02T07:16:27;14.38;;;4.80;;
58338;SDS011;48278;52.704;6.536;2022-09-02T07:21:20;9.25;;;4.32;;
58338;SDS011;48278;52.704;6.536;2022-09-02T07:23:46;12.65;;;4.88;;
58338;SDS011;48278;52.704;6.536;2022-09-02T07:26:12;9.27;;;4.45;;
58338;SDS011;48278;52.704;6.536;2022-09-02T07:28:40;9.10;;;4.75;;
58338;SDS011;48278;52.704;6.536;2022-09-02T07:31:11;9.50;;;4.47;;
58338;SDS011;48278;52.704;6.536;2022-09-02T07:33:38;9.75;;;4.65;;
58338;SDS011;48278;52.704;6.536;2022-09-02T07:36:04;11.25;;;4.15;;
58338;SDS011;48278;52.704;6.536;2022-09-02T07:38:31;9.52;;;4.18;;
58338;SDS011;48278;52.704;6.536;2022-09-02T07:40:58;10.45;;;4.55;;
58338;SDS011;48278;52.704;6.536;2022-09-02T07:43:25;10.43;;;4.50;;
58338;SDS011;48278;52.704;6.536;2022-09-02T07:45:53;6.93;;;4.07;;
58338;SDS011;48278;52.704;6.536;2022-09-02T07:48:20;10.85;;;4.32;;
58338;SDS011;48278;52.704;6.536;2022-09-02T07:53:13;13.57;;;4.23;;
58338;SDS011;48278;52.704;6.536;2022-09-02T07:55:40;11.60;;;4.50;;
58338;SDS011;48278;52.704;6.536;2022-09-02T07:58:07;12.10;;;4.25;;
58338;SDS011;48278;52.704;6.536;2022-09-02T08:00:33;12.33;;;4.23;;
58338;SDS011;48278;52.704;6.536;2022-09-02T08:03:00;9.88;;;3.85;;
58338;SDS011;48278;52.704;6.536;2022-09-02T08:05:26;10.75;;;4.97;;
58338;SDS011;48278;52.704;6.536;2022-09-02T08:07:52;10.95;;;3.88;;
58338;SDS011;48278;52.704;6.536;2022-09-02T08:10:18;14.32;;;4.07;;
58338;SDS011;48278;52.704;6.536;2022-09-02T08:12:45;10.90;;;3.88;;
58338;SDS011;48278;52.704;6.536;2022-09-02T08:15:11;10.13;;;4.18;;
58338;SDS011;48278;52.704;6.536;2022-09-02T08:17:38;10.85;;;3.95;;
58338;SDS011;48278;52.704;6.536;2022-09-02T08:20:06;8.15;;;3.47;;
58338;SDS011;48278;52.704;6.536;2022-09-02T08:22:34;9.05;;;3.65;;
58338;SDS011;48278;52.704;6.536;2022-09-02T08:25:00;9.48;;;3.65;;
58338;SDS011;48278;52.704;6.536;2022-09-02T08:27:26;12.48;;;3.38;;
58338;SDS011;48278;52.704;6.536;2022-09-02T08:29:52;16.40;;;3.67;;
58338;SDS011;48278;52.704;6.536;2022-09-02T08:32:18;7.88;;;3.63;;
58338;SDS011;48278;52.704;6.536;2022-09-02T08:34:44;11.07;;;4.10;;
58338;SDS011;48278;52.704;6.536;2022-09-02T08:37:10;10.70;;;3.75;;
58338;SDS011;48278;52.704;6.536;2022-09-02T08:39:36;13.68;;;3.58;;
58338;SDS011;48278;52.704;6.536;2022-09-02T08:44:42;9.55;;;3.40;;
58338;SDS011;48278;52.704;6.536;2022-09-02T08:47:10;6.97;;;3.50;;
58338;SDS011;48278;52.704;6.536;2022-09-02T08:49:44;11.90;;;3.33;;
58338;SDS011;48278;52.704;6.536;2022-09-02T08:52:19;7.90;;;2.78;;
58338;SDS011;48278;52.704;6.536;2022-09-02T08:55:18;18.38;;;3.33;;
58338;SDS011;48278;52.704;6.536;2022-09-02T08:57:49;9.05;;;3.35;;
58338;SDS011;48278;52.704;6.536;2022-09-02T09:00:15;9.25;;;3.53;;
58338;SDS011;48278;52.704;6.536;2022-09-02T09:10:45;12.20;;;3.15;;
58338;SDS011;48278;52.704;6.536;2022-09-02T09:22:10;8.10;;;2.72;;
58338;SDS011;48278;52.704;6.536;2022-09-02T09:24:39;10.75;;;2.97;;
58338;SDS011;48278;52.704;6.536;2022-09-02T09:27:10;9.35;;;2.53;;
58338;SDS011;48278;52.704;6.536;2022-09-02T09:29:37;8.13;;;3.00;;
58338;SDS011;48278;52.704;6.536;2022-09-02T09:32:03;8.10;;;2.90;;
58338;SDS011;48278;52.704;6.536;2022-09-02T09:37:31;9.10;;;2.70;;
58338;SDS011;48278;52.704;6.536;2022-09-02T09:39:57;11.25;;;2.83;;
58338;SDS011;48278;52.704;6.536;2022-09-02T09:42:30;8.83;;;3.10;;
58338;SDS011;48278;52.704;6.536;2022-09-02T09:44:58;10.57;;;2.55;;
58338;SDS011;48278;52.704;6.536;2022-09-02T09:47:24;9.00;;;2.70;;
58338;SDS011;48278;52.704;6.536;2022-09-02T09:52:24;9.15;;;2.58;;
58338;SDS011;48278;52.704;6.536;2022-09-02T09:55:11;8.35;;;2.60;;
58338;SDS011;48278;52.704;6.536;2022-09-02T09:57:43;5.50;;;2.42;;
58338;SDS011;48278;52.704;6.536;2022-09-02T10:00:17;8.98;;;2.50;;
58338;SDS011;48278;52.704;6.536;2022-09-02T10:02:50;8.88;;;2.50;;
58338;SDS011;48278;52.704;6.536;2022-09-02T10:05:26;8.48;;;2.35;;
58338;SDS011;48278;52.704;6.536;2022-09-02T10:10:39;7.47;;;2.00;;
58338;SDS011;48278;52.704;6.536;2022-09-02T10:13:25;6.20;;;2.30;;
58338;SDS011;48278;52.704;6.536;2022-09-02T10:18:28;10.68;;;2.00;;
58338;SDS011;48278;52.704;6.536;2022-09-02T10:21:33;9.37;;;2.30;;
58338;SDS011;48278;52.704;6.536;2022-09-02T10:27:06;6.50;;;2.03;;
58338;SDS011;48278;52.704;6.536;2022-09-02T10:35:08;5.65;;;2.22;;
58338;SDS011;48278;52.704;6.536;2022-09-02T10:43:09;6.82;;;2.22;;
58338;SDS011;48278;52.704;6.536;2022-09-02T10:45:45;8.35;;;2.38;;
58338;SDS011;48278;52.704;6.536;2022-09-02T10:48:21;7.90;;;1.98;;
58338;SDS011;48278;52.704;6.536;2022-09-02T10:56:07;6.82;;;2.17;;
58338;SDS011;48278;52.704;6.536;2022-09-02T10:58:44;9.73;;;2.28;;
58338;SDS011;48278;52.704;6.536;2022-09-02T11:01:19;7.07;;;2.20;;
58338;SDS011;48278;52.704;6.536;2022-09-02T11:04:01;6.80;;;1.90;;
58338;SDS011;48278;52.704;6.536;2022-09-02T11:06:46;8.30;;;2.17;;
58338;SDS011;48278;52.704;6.536;2022-09-02T11:12:08;5.57;;;1.85;;
58338;SDS011;48278;52.704;6.536;2022-09-02T11:20:49;5.93;;;2.50;;
58338;SDS011;48278;52.704;6.536;2022-09-02T11:23:34;8.25;;;2.30;;
58338;SDS011;48278;52.704;6.536;2022-09-02T11:28:54;6.30;;;1.90;;
58338;SDS011;48278;52.704;6.536;2022-09-02T11:34:01;9.30;;;2.20;;
58338;SDS011;48278;52.704;6.536;2022-09-02T11:36:46;8.13;;;2.15;;
58338;SDS011;48278;52.704;6.536;2022-09-02T11:39:23;8.15;;;2.13;;
58338;SDS011;48278;52.704;6.536;2022-09-02T11:44:46;6.50;;;2.30;;
58338;SDS011;48278;52.704;6.536;2022-09-02T11:53:30;9.55;;;2.35;;
58338;SDS011;48278;52.704;6.536;2022-09-02T11:56:08;9.20;;;2.30;;
58338;SDS011;48278;52.704;6.536;2022-09-02T11:58:40;13.30;;;2.42;;
58338;SDS011;48278;52.704;6.536;2022-09-02T12:04:40;7.78;;;2.30;;
58338;SDS011;48278;52.704;6.536;2022-09-02T12:06:53;10.98;;;2.55;;
58338;SDS011;48278;52.704;6.536;2022-09-02T12:21:03;5.03;;;2.08;;
58338;SDS011;48278;52.704;6.536;2022-09-02T12:23:03;8.48;;;2.28;;
58338;SDS011;48278;52.704;6.536;2022-09-02T12:33:33;10.82;;;2.70;;
58338;SDS011;48278;52.704;6.536;2022-09-02T12:36:00;6.28;;;2.60;;
58338;SDS011;48278;52.704;6.536;2022-09-02T12:48:49;11.02;;;2.38;;
58338;SDS011;48278;52.704;6.536;2022-09-02T12:51:52;12.43;;;2.60;;
58338;SDS011;48278;52.704;6.536;2022-09-02T12:57:08;9.75;;;3.13;;
58338;SDS011;48278;52.704;6.536;2022-09-02T12:59:39;11.88;;;2.72;;
58338;SDS011;48278;52.704;6.536;2022-09-02T13:19:51;8.65;;;2.92;;
58338;SDS011;48278;52.704;6.536;2022-09-02T13:33:31;9.68;;;2.85;;
58338;SDS011;48278;52.704;6.536;2022-09-02T13:35:57;7.32;;;3.30;;
58338;SDS011;48278;52.704;6.536;2022-09-02T13:38:25;7.32;;;2.95;;
58338;SDS011;48278;52.704;6.536;2022-09-02T13:40:52;9.23;;;2.80;;
58338;SDS011;48278;52.704;6.536;2022-09-02T13:43:19;7.93;;;2.90;;
58338;SDS011;48278;52.704;6.536;2022-09-02T13:45:47;6.88;;;2.83;;
58338;SDS011;48278;52.704;6.536;2022-09-02T13:48:16;7.65;;;3.13;;
58338;SDS011;48278;52.704;6.536;2022-09-02T13:50:45;6.38;;;3.10;;
58338;SDS011;48278;52.704;6.536;2022-09-02T13:53:20;10.70;;;2.90;;
58338;SDS011;48278;52.704;6.536;2022-09-02T13:55:49;5.63;;;2.80;;
58338;SDS011;48278;52.704;6.536;2022-09-02T14:01:08;8.88;;;3.30;;
58338;SDS011;48278;52.704;6.536;2022-09-02T14:03:49;6.47;;;2.95;;
58338;SDS011;48278;52.704;6.536;2022-09-02T14:06:17;7.88;;;3.35;;
58338;SDS011;48278;52.704;6.536;2022-09-02T14:08:55;8.18;;;3.47;;
58338;SDS011;48278;52.704;6.536;2022-09-02T14:11:24;5.88;;;3.05;;
58338;SDS011;48278;52.704;6.536;2022-09-02T14:13:51;6.72;;;3.10;;
58338;SDS011;48278;52.704;6.536;2022-09-02T14:16:25;9.43;;;3.08;;
58338;SDS011;48278;52.704;6.536;2022-09-02T14:21:33;9.38;;;3.15;;
58338;SDS011;48278;52.704;6.536;2022-09-02T14:24:00;11.40;;;3.10;;
58338;SDS011;48278;52.704;6.536;2022-09-02T14:28:58;7.40;;;3.53;;
58338;SDS011;48278;52.704;6.536;2022-09-02T14:31:25;7.25;;;3.13;;
58338;SDS011;48278;52.704;6.536;2022-09-02T14:33:55;6.68;;;2.88;;
58338;SDS011;48278;52.704;6.536;2022-09-02T14:38:51;7.93;;;2.83;;
58338;SDS011;48278;52.704;6.536;2022-09-02T14:41:23;9.45;;;3.22;;
58338;SDS011;48278;52.704;6.536;2022-09-02T14:43:58;5.63;;;3.22;;
58338;SDS011;48278;52.704;6.536;2022-09-02T14:46:35;9.82;;;3.47;;
58338;SDS011;48278;52.704;6.536;2022-09-02T14:49:10;6.97;;;3.20;;
58338;SDS011;48278;52.704;6.536;2022-09-02T14:54:33;8.82;;;2.90;;
58338;SDS011;48278;52.704;6.536;2022-09-02T14:57:04;6.38;;;3.00;;
58338;SDS011;48278;52.704;6.536;2022-09-02T14:59:54;8.52;;;3.05;;
58338;SDS011;48278;52.704;6.536;2022-09-02T15:05:03;6.65;;;3.53;;
58338;SDS011;48278;52.704;6.536;2022-09-02T15:07:31;7.68;;;3.10;;
58338;SDS011;48278;52.704;6.536;2022-09-02T15:09:57;6.70;;;3.03;;
58338;SDS011;48278;52.704;6.536;2022-09-02T15:12:25;6.38;;;2.85;;
58338;SDS011;48278;52.704;6.536;2022-09-02T15:14:54;5.10;;;2.90;;
58338;SDS011;48278;52.704;6.536;2022-09-02T15:17:20;8.57;;;3.03;;
58338;SDS011;48278;52.704;6.536;2022-09-02T15:19:47;9.63;;;3.17;;
58338;SDS011;48278;52.704;6.536;2022-09-02T15:22:13;6.32;;;2.80;;
58338;SDS011;48278;52.704;6.536;2022-09-02T15:27:07;7.00;;;3.15;;
58338;SDS011;48278;52.704;6.536;2022-09-02T15:29:37;6.78;;;3.22;;
58338;SDS011;48278;52.704;6.536;2022-09-02T15:32:03;9.13;;;2.92;;
58338;SDS011;48278;52.704;6.536;2022-09-02T15:36:55;8.90;;;3.30;;
58338;SDS011;48278;52.704;6.536;2022-09-02T15:39:25;8.57;;;3.00;;
58338;SDS011;48278;52.704;6.536;2022-09-02T15:41:51;7.57;;;3.03;;
58338;SDS011;48278;52.704;6.536;2022-09-02T15:44:19;8.45;;;3.10;;
58338;SDS011;48278;52.704;6.536;2022-09-02T15:46:46;6.20;;;3.15;;
58338;SDS011;48278;52.704;6.536;2022-09-02T15:49:12;10.52;;;3.40;;
58338;SDS011;48278;52.704;6.536;2022-09-02T15:51:41;10.05;;;3.13;;
58338;SDS011;48278;52.704;6.536;2022-09-02T15:54:12;10.65;;;3.20;;
58338;SDS011;48278;52.704;6.536;2022-09-02T15:56:41;10.23;;;2.95;;
58338;SDS011;48278;52.704;6.536;2022-09-02T15:59:11;9.88;;;3.70;;
58338;SDS011;48278;52.704;6.536;2022-09-02T16:01:39;7.72;;;3.45;;
58338;SDS011;48278;52.704;6.536;2022-09-02T16:04:08;7.47;;;2.92;;
58338;SDS011;48278;52.704;6.536;2022-09-02T16:06:35;10.77;;;2.90;;
58338;SDS011;48278;52.704;6.536;2022-09-02T16:09:05;8.02;;;3.30;;
58338;SDS011;48278;52.704;6.536;2022-09-02T16:11:32;8.13;;;3.15;;
58338;SDS011;48278;52.704;6.536;2022-09-02T16:14:00;6.10;;;2.92;;
58338;SDS011;48278;52.704;6.536;2022-09-02T16:16:26;7.43;;;3.20;;
58338;SDS011;48278;52.704;6.536;2022-09-02T16:18:52;6.80;;;3.30;;
58338;SDS011;48278;52.704;6.536;2022-09-02T16:23:47;8.77;;;3.33;;
58338;SDS011;48278;52.704;6.536;2022-09-02T16:26:14;5.93;;;3.20;;
58338;SDS011;48278;52.704;6.536;2022-09-02T16:28:54;37.58;;;5.25;;
58338;SDS011;48278;52.704;6.536;2022-09-02T16:31:22;9.95;;;3.70;;
58338;SDS011;48278;52.704;6.536;2022-09-02T16:33:50;8.32;;;3.47;;
58338;SDS011;48278;52.704;6.536;2022-09-02T16:36:24;7.40;;;3.30;;
58338;SDS011;48278;52.704;6.536;2022-09-02T16:38:51;13.60;;;3.60;;
58338;SDS011;48278;52.704;6.536;2022-09-02T16:41:21;12.13;;;3.53;;
58338;SDS011;48278;52.704;6.536;2022-09-02T16:43:47;6.45;;;2.80;;
58338;SDS011;48278;52.704;6.536;2022-09-02T16:46:13;6.10;;;3.27;;
58338;SDS011;48278;52.704;6.536;2022-09-02T16:48:38;9.93;;;3.20;;
58338;SDS011;48278;52.704;6.536;2022-09-02T16:51:04;7.23;;;3.20;;
58338;SDS011;48278;52.704;6.536;2022-09-02T16:53:31;7.00;;;3.33;;
58338;SDS011;48278;52.704;6.536;2022-09-02T16:55:57;8.00;;;3.50;;
58338;SDS011;48278;52.704;6.536;2022-09-02T16:58:23;8.70;;;3.03;;
58338;SDS011;48278;52.704;6.536;2022-09-02T17:00:49;9.05;;;3.40;;
58338;SDS011;48278;52.704;6.536;2022-09-02T17:03:15;6.97;;;3.53;;
58338;SDS011;48278;52.704;6.536;2022-09-02T17:05:40;7.97;;;3.53;;
58338;SDS011;48278;52.704;6.536;2022-09-02T17:08:08;9.38;;;3.67;;
58338;SDS011;48278;52.704;6.536;2022-09-02T17:10:34;6.43;;;3.30;;
58338;SDS011;48278;52.704;6.536;2022-09-02T17:13:00;11.30;;;3.38;;
58338;SDS011;48278;52.704;6.536;2022-09-02T17:15:26;7.22;;;3.17;;
58338;SDS011;48278;52.704;6.536;2022-09-02T17:17:53;7.10;;;3.30;;
58338;SDS011;48278;52.704;6.536;2022-09-02T17:22:46;8.85;;;3.65;;
58338;SDS011;48278;52.704;6.536;2022-09-02T17:25:12;9.82;;;3.53;;
58338;SDS011;48278;52.704;6.536;2022-09-02T17:27:38;6.07;;;3.53;;
58338;SDS011;48278;52.704;6.536;2022-09-02T17:30:07;9.25;;;3.47;;
58338;SDS011;48278;52.704;6.536;2022-09-02T17:32:37;8.25;;;3.58;;
58338;SDS011;48278;52.704;6.536;2022-09-02T17:35:04;11.13;;;3.50;;
58338;SDS011;48278;52.704;6.536;2022-09-02T17:37:34;8.07;;;3.72;;
58338;SDS011;48278;52.704;6.536;2022-09-02T17:40:05;9.77;;;3.60;;
58338;SDS011;48278;52.704;6.536;2022-09-02T17:42:57;10.05;;;3.72;;
58338;SDS011;48278;52.704;6.536;2022-09-02T17:45:23;8.47;;;3.50;;
58338;SDS011;48278;52.704;6.536;2022-09-02T17:47:48;8.57;;;3.57;;
58338;SDS011;48278;52.704;6.536;2022-09-02T17:50:14;7.25;;;3.38;;
58338;SDS011;48278;52.704;6.536;2022-09-02T17:52:40;12.05;;;3.53;;
58338;SDS011;48278;52.704;6.536;2022-09-02T17:55:09;6.28;;;3.28;;
58338;SDS011;48278;52.704;6.536;2022-09-02T18:00:19;7.63;;;3.80;;
58338;SDS011;48278;52.704;6.536;2022-09-02T18:11:07;5.85;;;3.15;;
58338;SDS011;48278;52.704;6.536;2022-09-02T18:18:45;13.45;;;4.78;;
58338;SDS011;48278;52.704;6.536;2022-09-02T18:21:43;16.48;;;6.60;;
58338;SDS011;48278;52.704;6.536;2022-09-02T18:24:21;13.63;;;3.90;;